createdAt,value
2022-07-27T00:00:29.158Z,17.70
2022-07-27T00:02:31.875Z,17.70
2022-07-27T00:04:34.582Z,17.70
2022-07-27T00:06:37.284Z,17.60
2022-07-27T00:08:40.353Z,17.60
2022-07-27T00:10:42.926Z,17.60
2022-07-27T00:12:46.661Z,17.60
2022-07-27T00:14:49.318Z,17.50
2022-07-27T00:16:51.953Z,17.60
2022-07-27T00:18:54.688Z,17.50
2022-07-27T00:20:57.328Z,17.50
2022-07-27T00:23:00.185Z,17.50
2022-07-27T00:25:02.835Z,17.50
2022-07-27T00:27:05.453Z,17.50
2022-07-27T00:29:08.549Z,17.40
2022-07-27T00:31:11.539Z,17.40
2022-07-27T00:33:16.900Z,17.30
2022-07-27T00:35:20.973Z,17.30
2022-07-27T00:37:23.591Z,17.20
2022-07-27T00:39:33.237Z,17.20
2022-07-27T00:41:35.827Z,17.20
2022-07-27T00:43:56.710Z,17.20
2022-07-27T00:45:59.600Z,17.20
2022-07-27T00:48:07.299Z,17.10
2022-07-27T00:50:10.944Z,17.10
2022-07-27T00:52:14.999Z,17.10
2022-07-27T00:54:17.797Z,17.00
2022-07-27T00:56:21.792Z,17.00
2022-07-27T00:58:25.856Z,16.90
2022-07-27T01:00:29.215Z,16.90
2022-07-27T01:02:31.985Z,16.80
2022-07-27T01:04:35.413Z,16.80
2022-07-27T01:06:38.240Z,16.80
2022-07-27T01:08:42.608Z,16.70
2022-07-27T01:10:45.801Z,16.70
2022-07-27T01:12:48.679Z,16.70
2022-07-27T01:14:53.177Z,16.60
2022-07-27T01:16:55.748Z,16.50
2022-07-27T01:18:58.327Z,16.50
2022-07-27T01:21:04.418Z,16.40
2022-07-27T01:23:07.015Z,16.30
2022-07-27T01:25:10.680Z,16.30
2022-07-27T01:27:13.247Z,16.20
2022-07-27T01:29:16.568Z,16.20
2022-07-27T01:31:19.275Z,16.10
2022-07-27T01:33:26.082Z,16.10
2022-07-27T01:35:29.733Z,16.00
2022-07-27T01:37:32.428Z,16.00
2022-07-27T01:39:35.126Z,15.90
2022-07-27T01:41:37.786Z,15.90
2022-07-27T01:43:41.091Z,15.90
2022-07-27T01:45:43.815Z,15.80
2022-07-27T01:47:46.372Z,15.80
2022-07-27T01:49:48.983Z,15.70
2022-07-27T01:51:51.767Z,15.70
2022-07-27T01:53:54.828Z,15.70
2022-07-27T01:55:57.422Z,15.70
2022-07-27T01:58:03.936Z,15.70
2022-07-27T02:00:13.634Z,15.60
2022-07-27T02:02:16.415Z,15.50
2022-07-27T02:04:18.997Z,15.60
2022-07-27T02:06:21.639Z,15.50
2022-07-27T02:08:24.253Z,15.50
2022-07-27T02:10:26.892Z,15.40
2022-07-27T02:12:35.636Z,15.40
2022-07-27T02:14:38.222Z,15.30
2022-07-27T02:16:41.262Z,15.30
2022-07-27T02:18:45.875Z,15.30
2022-07-27T02:20:51.657Z,15.20
2022-07-27T02:22:55.281Z,15.20
2022-07-27T02:24:58.304Z,15.20
2022-07-27T02:27:00.952Z,15.20
2022-07-27T02:29:03.536Z,15.20
2022-07-27T02:31:06.288Z,15.30
2022-07-27T02:33:09.227Z,15.30
2022-07-27T02:35:18.246Z,15.30
2022-07-27T02:37:23.051Z,15.30
2022-07-27T02:39:25.656Z,15.30
2022-07-27T02:41:29.253Z,15.30
2022-07-27T02:43:31.842Z,15.30
2022-07-27T02:45:34.479Z,15.30
2022-07-27T02:47:38.030Z,15.30
2022-07-27T02:49:40.578Z,15.20
2022-07-27T02:51:43.214Z,15.30
2022-07-27T02:53:45.879Z,15.30
2022-07-27T02:55:48.483Z,15.30
2022-07-27T02:57:51.057Z,15.30
2022-07-27T02:59:53.864Z,15.30
2022-07-27T03:02:01.075Z,15.30
2022-07-27T03:04:04.382Z,15.30
2022-07-27T03:06:07.862Z,15.30
2022-07-27T03:08:10.587Z,15.20
2022-07-27T03:10:13.211Z,15.20
2022-07-27T03:12:15.784Z,15.10
2022-07-27T03:14:18.404Z,15.20
2022-07-27T03:16:21.728Z,15.10
2022-07-27T03:18:25.284Z,15.10
2022-07-27T03:20:33.803Z,15.10
2022-07-27T03:22:36.517Z,15.00
2022-07-27T03:24:39.206Z,15.00
2022-07-27T03:26:41.867Z,15.00
2022-07-27T03:28:44.447Z,15.00
2022-07-27T03:30:47.079Z,15.00
2022-07-27T03:32:49.850Z,15.00
2022-07-27T03:34:52.880Z,15.00
2022-07-27T03:36:55.459Z,15.10
2022-07-27T03:38:59.793Z,15.10
2022-07-27T03:41:05.042Z,15.10
2022-07-27T03:43:08.290Z,15.10
2022-07-27T03:45:11.199Z,15.20
2022-07-27T03:47:13.758Z,15.20
2022-07-27T03:49:16.869Z,15.20
2022-07-27T03:51:19.770Z,15.20
2022-07-27T03:53:22.855Z,15.20
2022-07-27T03:55:25.996Z,15.20
2022-07-27T03:57:28.594Z,15.20
2022-07-27T03:59:32.201Z,15.20
2022-07-27T04:01:34.958Z,15.10
2022-07-27T04:03:42.432Z,15.20
2022-07-27T04:05:46.768Z,15.10
2022-07-27T04:07:49.924Z,15.10
2022-07-27T04:09:57.549Z,15.20
2022-07-27T04:12:00.763Z,15.20
2022-07-27T04:14:03.820Z,15.30
2022-07-27T04:16:06.431Z,15.40
2022-07-27T04:18:09.014Z,15.50
2022-07-27T04:20:11.754Z,15.60
2022-07-27T04:22:14.353Z,15.70
2022-07-27T04:24:16.914Z,15.80
2022-07-27T04:26:20.016Z,15.90
2022-07-27T04:28:22.728Z,16.00
2022-07-27T04:30:26.221Z,16.00
2022-07-27T04:32:30.101Z,16.10
2022-07-27T04:34:32.670Z,16.10
2022-07-27T04:36:37.983Z,16.20
2022-07-27T04:38:40.612Z,16.20
2022-07-27T04:40:43.167Z,16.30
2022-07-27T04:42:49.616Z,16.40
2022-07-27T04:44:52.594Z,16.50
2022-07-27T04:46:55.148Z,16.60
2022-07-27T04:48:58.175Z,16.60
2022-07-27T04:51:01.562Z,16.60
2022-07-27T04:53:04.139Z,16.60
2022-07-27T04:55:07.025Z,16.70
2022-07-27T04:57:09.637Z,16.70
2022-07-27T04:59:12.695Z,16.80
2022-07-27T05:01:16.066Z,16.80
2022-07-27T05:03:18.780Z,16.80
2022-07-27T05:05:22.249Z,16.90
2022-07-27T05:07:26.552Z,17.00
2022-07-27T05:09:29.449Z,17.00
2022-07-27T05:11:32.162Z,17.10
2022-07-27T05:13:37.847Z,17.10
2022-07-27T05:15:55.582Z,17.10
2022-07-27T05:17:58.595Z,17.10
2022-07-27T05:20:03.053Z,17.20
2022-07-27T05:22:05.756Z,17.20
2022-07-27T05:24:08.447Z,17.20
2022-07-27T05:26:12.324Z,17.20
2022-07-27T05:28:14.988Z,17.20
2022-07-27T05:30:17.779Z,17.10
2022-07-27T05:32:41.098Z,17.10
2022-07-27T05:34:47.016Z,17.10
2022-07-27T05:36:49.704Z,17.10
2022-07-27T05:38:52.279Z,17.00
2022-07-27T05:40:54.892Z,17.00
2022-07-27T05:42:57.811Z,16.90
2022-07-27T05:45:01.866Z,16.80
2022-07-27T05:47:06.224Z,16.80
2022-07-27T05:49:09.522Z,16.70
2022-07-27T05:51:12.469Z,16.70
2022-07-27T05:53:15.041Z,16.60
2022-07-27T05:55:17.699Z,16.70
2022-07-27T05:57:20.314Z,16.80
2022-07-27T05:59:24.251Z,17.00
2022-07-27T06:01:27.680Z,17.20
2022-07-27T06:03:32.540Z,17.70
2022-07-27T06:05:35.283Z,18.10
2022-07-27T06:07:56.254Z,18.50
2022-07-27T06:10:03.360Z,18.80
2022-07-27T06:12:06.876Z,19.20
2022-07-27T06:14:09.790Z,19.50
2022-07-27T06:16:12.539Z,19.50
2022-07-27T06:18:18.316Z,19.60
2022-07-27T06:20:22.532Z,19.70
2022-07-27T06:22:25.171Z,19.70
2022-07-27T06:24:27.800Z,19.70
2022-07-27T06:26:30.516Z,19.80
2022-07-27T06:28:33.220Z,19.90
2022-07-27T06:30:36.121Z,19.80
2022-07-27T06:32:39.019Z,19.90
2022-07-27T06:34:43.287Z,20.00
2022-07-27T06:36:47.058Z,20.10
2022-07-27T06:38:50.109Z,20.30
2022-07-27T06:40:53.747Z,20.40
2022-07-27T06:42:56.756Z,20.40
2022-07-27T06:44:59.547Z,20.60
2022-07-27T06:47:02.219Z,20.60
2022-07-27T06:49:04.978Z,20.70
2022-07-27T06:51:08.743Z,20.70
2022-07-27T06:53:11.411Z,20.70
2022-07-27T06:55:14.342Z,20.70
2022-07-27T06:57:17.014Z,20.80
2022-07-27T06:59:19.563Z,20.80
2022-07-27T07:01:23.405Z,20.90
2022-07-27T07:03:26.627Z,21.00
2022-07-27T07:05:30.035Z,21.10
2022-07-27T07:07:32.728Z,21.20
2022-07-27T07:09:35.793Z,21.20
2022-07-27T07:11:38.506Z,21.20
2022-07-27T07:13:44.928Z,21.20
2022-07-27T07:15:50.260Z,21.10
2022-07-27T07:17:54.373Z,21.10
2022-07-27T07:19:57.188Z,21.20
2022-07-27T07:22:00.827Z,21.30
2022-07-27T07:24:03.778Z,21.40
2022-07-27T07:26:07.006Z,21.50
2022-07-27T07:28:09.644Z,21.60
2022-07-27T07:30:13.063Z,21.70
2022-07-27T07:32:16.328Z,21.70
2022-07-27T07:34:19.015Z,21.60
2022-07-27T07:36:25.899Z,21.40
2022-07-27T07:38:28.517Z,21.30
2022-07-27T07:40:46.480Z,21.30
2022-07-27T07:42:54.502Z,21.50
2022-07-27T07:44:57.175Z,21.70
2022-07-27T07:47:00.522Z,21.90
2022-07-27T07:49:05.070Z,22.00
2022-07-27T07:51:07.765Z,22.20
2022-07-27T07:53:10.452Z,22.60
2022-07-27T07:55:21.292Z,22.80
2022-07-27T07:57:24.266Z,23.10
2022-07-27T07:59:28.338Z,23.20
2022-07-27T08:01:31.556Z,23.30
2022-07-27T08:03:34.958Z,23.50
2022-07-27T08:05:37.742Z,23.50
2022-07-27T08:07:41.791Z,23.70
2022-07-27T08:09:44.653Z,23.90
2022-07-27T08:11:49.297Z,24.20
2022-07-27T08:13:51.899Z,24.50
2022-07-27T08:15:54.586Z,24.60
2022-07-27T08:17:57.249Z,24.70
2022-07-27T08:19:59.865Z,24.70
2022-07-27T08:22:02.543Z,24.80
2022-07-27T08:24:05.327Z,25.00
2022-07-27T08:26:08.389Z,25.10
2022-07-27T08:28:11.023Z,25.30
2022-07-27T08:30:13.955Z,25.20
2022-07-27T08:32:16.713Z,25.00
2022-07-27T08:34:19.371Z,24.80
2022-07-27T08:36:21.999Z,24.70
2022-07-27T08:38:27.354Z,24.60
2022-07-27T08:40:46.749Z,24.80
2022-07-27T08:42:49.939Z,25.10
2022-07-27T08:44:54.345Z,25.30
2022-07-27T08:47:02.616Z,25.50
2022-07-27T08:49:05.430Z,25.80
2022-07-27T08:51:08.132Z,26.00
2022-07-27T08:53:13.522Z,26.00
2022-07-27T08:55:16.444Z,25.80
2022-07-27T08:57:19.179Z,25.50
2022-07-27T08:59:21.740Z,25.30
2022-07-27T09:01:24.436Z,25.30
2022-07-27T09:03:27.140Z,25.20
2022-07-27T09:05:37.113Z,25.30
2022-07-27T09:07:40.975Z,25.40
2022-07-27T09:09:47.051Z,25.30
2022-07-27T09:12:10.641Z,25.00
2022-07-27T09:14:14.378Z,24.80
2022-07-27T09:16:19.352Z,24.70
2022-07-27T09:18:28.528Z,24.60
2022-07-27T09:20:31.198Z,24.30
2022-07-27T09:22:53.147Z,23.90
2022-07-27T09:25:02.727Z,23.70
2022-07-27T09:27:05.891Z,23.70
2022-07-27T09:29:09.826Z,23.80
2022-07-27T09:31:15.701Z,23.90
2022-07-27T09:33:18.393Z,24.10
2022-07-27T09:35:36.637Z,24.30
2022-07-27T09:37:40.018Z,24.40
2022-07-27T09:40:09.993Z,24.50
2022-07-27T09:43:03.842Z,24.20
2022-07-27T09:44:45.249Z,23.90
2022-07-27T09:46:48.773Z,23.50
2022-07-27T09:48:58.738Z,23.30
2022-07-27T09:51:32.812Z,23.10
2022-07-27T09:53:43.632Z,23.20
2022-07-27T09:56:02.635Z,23.30
2022-07-27T09:58:05.346Z,23.50
2022-07-27T10:00:14.039Z,23.60
2022-07-27T10:02:16.982Z,23.70
2022-07-27T10:04:20.841Z,23.60
2022-07-27T10:06:25.315Z,23.60
2022-07-27T10:08:54.537Z,23.70
2022-07-27T10:10:58.116Z,24.00
2022-07-27T10:13:00.748Z,24.30
2022-07-27T10:15:03.546Z,24.50
2022-07-27T10:17:07.652Z,24.60
2022-07-27T10:19:20.465Z,24.70
2022-07-27T10:21:24.869Z,24.70
2022-07-27T10:23:29.283Z,24.50
2022-07-27T10:25:32.513Z,24.30
2022-07-27T10:27:41.351Z,24.10
2022-07-27T10:29:44.070Z,23.90
2022-07-27T10:31:52.657Z,23.90
2022-07-27T10:34:38.608Z,23.90
2022-07-27T10:36:48.384Z,23.80
2022-07-27T10:38:56.520Z,23.70
2022-07-27T10:41:25.722Z,23.70
2022-07-27T10:43:28.334Z,23.70
2022-07-27T10:45:59.978Z,23.70
2022-07-27T10:48:47.525Z,23.90
2022-07-27T10:50:53.156Z,24.20
2022-07-27T10:53:07.789Z,24.50
2022-07-27T10:55:36.481Z,24.70
2022-07-27T10:57:44.548Z,24.80
2022-07-27T11:00:08.106Z,24.90
2022-07-27T11:02:20.922Z,24.90
2022-07-27T11:04:26.590Z,24.80
2022-07-27T11:06:37.622Z,24.80
2022-07-27T11:09:17.070Z,24.70
2022-07-27T11:11:21.447Z,24.50
2022-07-27T11:13:35.364Z,24.30
2022-07-27T11:16:22.802Z,24.30
2022-07-27T11:18:39.153Z,24.00
2022-07-27T11:20:42.554Z,23.60
2022-07-27T11:23:20.821Z,23.30
2022-07-27T11:25:09.214Z,23.00
2022-07-27T11:27:19.149Z,22.80
2022-07-27T11:29:25.715Z,22.70
2022-07-27T11:31:52.816Z,22.50
2022-07-27T11:34:00.766Z,22.40
2022-07-27T11:36:06.617Z,22.40
2022-07-27T11:38:09.573Z,22.40
2022-07-27T11:40:37.496Z,22.40
2022-07-27T11:42:40.153Z,22.50
2022-07-27T11:44:44.768Z,22.50
2022-07-27T11:46:52.273Z,22.50
2022-07-27T11:49:09.445Z,22.50
2022-07-27T11:51:20.732Z,22.50
2022-07-27T11:53:23.377Z,22.50
2022-07-27T11:55:30.708Z,22.70
2022-07-27T11:57:33.991Z,22.80
2022-07-27T11:59:46.828Z,22.90
2022-07-27T12:02:01.740Z,23.00
2022-07-27T12:04:16.571Z,23.00
2022-07-27T12:06:20.202Z,23.00
2022-07-27T12:08:32.857Z,22.90
2022-07-27T12:10:37.707Z,22.80
2022-07-27T12:12:51.426Z,22.80
2022-07-27T12:14:57.391Z,22.90
2022-07-27T12:17:31.157Z,23.20
2022-07-27T12:19:34.001Z,23.60
2022-07-27T12:21:36.986Z,24.00
2022-07-27T12:23:52.547Z,24.20
2022-07-27T12:25:56.453Z,24.30
2022-07-27T12:28:18.061Z,24.20
2022-07-27T12:30:49.087Z,23.90
2022-07-27T12:33:03.030Z,23.70
2022-07-27T12:35:36.272Z,23.50
2022-07-27T12:37:42.754Z,23.40
2022-07-27T12:39:46.814Z,23.40
2022-07-27T12:42:07.012Z,23.50
2022-07-27T12:44:12.859Z,23.60
2022-07-27T12:46:17.272Z,23.70
2022-07-27T12:48:28.213Z,23.80
2022-07-27T12:50:30.830Z,23.90
2022-07-27T12:52:37.695Z,24.00
2022-07-27T12:54:40.336Z,24.10
2022-07-27T12:56:43.094Z,24.30
2022-07-27T12:59:03.523Z,24.40
2022-07-27T13:01:06.870Z,24.50
2022-07-27T13:03:10.694Z,24.40
2022-07-27T13:05:15.452Z,24.50
2022-07-27T13:07:19.420Z,24.60
2022-07-27T13:09:22.507Z,24.70
2022-07-27T13:11:27.179Z,24.60
2022-07-27T13:13:29.868Z,24.70
2022-07-27T13:15:32.597Z,24.60
2022-07-27T13:17:36.011Z,24.60
2022-07-27T13:19:38.716Z,24.60
2022-07-27T13:21:41.915Z,24.60
2022-07-27T13:23:46.626Z,24.60
2022-07-27T13:25:49.502Z,24.60
2022-07-27T13:27:52.466Z,24.60
2022-07-27T13:29:55.458Z,24.60
2022-07-27T13:31:58.232Z,24.70
2022-07-27T13:34:03.657Z,24.80
2022-07-27T13:36:16.379Z,24.90
2022-07-27T13:38:19.018Z,25.00
2022-07-27T13:40:29.015Z,25.10
2022-07-27T13:42:39.565Z,25.10
2022-07-27T13:45:03.794Z,25.00
2022-07-27T13:47:06.947Z,24.70
2022-07-27T13:49:09.547Z,24.50
2022-07-27T13:51:15.901Z,24.20
2022-07-27T13:53:19.073Z,24.00
2022-07-27T13:55:27.712Z,23.80
2022-07-27T13:57:30.763Z,23.80
2022-07-27T13:59:33.427Z,23.70
2022-07-27T14:01:38.410Z,23.60
2022-07-27T14:04:14.684Z,23.50
2022-07-27T14:06:20.338Z,23.60
2022-07-27T14:08:26.682Z,23.50
2022-07-27T14:10:32.114Z,23.50
2022-07-27T14:12:34.737Z,23.60
2022-07-27T14:14:37.560Z,23.60
2022-07-27T14:16:40.320Z,23.60
2022-07-27T14:18:43.092Z,23.50
2022-07-27T14:20:45.690Z,23.40
2022-07-27T14:22:48.386Z,23.50
2022-07-27T14:24:55.279Z,23.50
2022-07-27T14:27:02.472Z,23.60
2022-07-27T14:29:05.187Z,23.70
2022-07-27T14:31:11.151Z,23.80
2022-07-27T14:33:19.873Z,23.90
2022-07-27T14:35:23.078Z,23.90
2022-07-27T14:37:25.692Z,23.90
2022-07-27T14:39:28.433Z,24.00
2022-07-27T14:41:31.499Z,24.00
2022-07-27T14:43:49.329Z,24.10
2022-07-27T14:45:52.078Z,24.20
2022-07-27T14:48:04.138Z,24.30
2022-07-27T14:50:09.655Z,24.40
2022-07-27T14:52:15.665Z,24.50
2022-07-27T14:54:18.365Z,24.40
2022-07-27T14:56:21.363Z,24.30
2022-07-27T14:58:24.118Z,24.20
2022-07-27T15:00:37.666Z,24.20
2022-07-27T15:02:42.867Z,24.30
2022-07-27T15:04:46.718Z,24.30
2022-07-27T15:06:49.545Z,24.20
2022-07-27T15:08:52.335Z,24.10
2022-07-27T15:10:57.687Z,24.10
2022-07-27T15:13:00.589Z,24.20
2022-07-27T15:15:05.398Z,24.20
2022-07-27T15:17:08.869Z,24.20
2022-07-27T15:19:12.707Z,24.20
2022-07-27T15:21:15.481Z,24.10
2022-07-27T15:23:18.064Z,24.10
2022-07-27T15:25:22.323Z,24.10
2022-07-27T15:27:25.148Z,23.90
2022-07-27T15:29:27.767Z,23.80
2022-07-27T15:31:31.176Z,23.70
2022-07-27T15:33:33.763Z,23.60
2022-07-27T15:35:36.490Z,23.40
2022-07-27T15:37:39.337Z,23.40
2022-07-27T15:39:42.329Z,23.30
2022-07-27T15:41:44.925Z,23.30
2022-07-27T15:43:48.765Z,23.30
2022-07-27T15:45:51.713Z,23.30
2022-07-27T15:47:54.334Z,23.20
2022-07-27T15:49:56.907Z,23.20
2022-07-27T15:52:01.230Z,23.30
2022-07-27T15:54:05.154Z,23.30
2022-07-27T15:56:08.433Z,23.40
2022-07-27T15:58:13.562Z,23.40
2022-07-27T16:00:16.588Z,23.30
2022-07-27T16:02:24.650Z,23.20
2022-07-27T16:04:28.183Z,23.00
2022-07-27T16:06:38.261Z,22.80
2022-07-27T16:08:41.569Z,22.70
2022-07-27T16:10:45.463Z,22.50
2022-07-27T16:12:48.181Z,22.40
2022-07-27T16:14:50.793Z,22.30
2022-07-27T16:16:54.359Z,22.30
2022-07-27T16:19:12.710Z,22.30
2022-07-27T16:21:16.387Z,22.40
2022-07-27T16:23:22.103Z,22.50
2022-07-27T16:25:45.860Z,22.60
2022-07-27T16:27:47.550Z,22.60
2022-07-27T16:29:50.209Z,22.60
2022-07-27T16:31:58.192Z,22.60
2022-07-27T16:34:00.913Z,22.70
2022-07-27T16:36:06.008Z,22.60
2022-07-27T16:38:11.936Z,22.50
2022-07-27T16:40:15.706Z,22.50
2022-07-27T16:42:18.374Z,22.30
2022-07-27T16:44:21.682Z,22.30
2022-07-27T16:46:24.424Z,22.20
2022-07-27T16:48:27.032Z,22.10
2022-07-27T16:50:29.739Z,22.10
2022-07-27T16:52:33.102Z,22.00
2022-07-27T16:54:39.603Z,21.90
2022-07-27T16:56:42.507Z,21.90
2022-07-27T16:58:45.226Z,21.90
2022-07-27T17:00:47.798Z,21.90
2022-07-27T17:02:52.537Z,22.00
2022-07-27T17:04:55.149Z,22.10
2022-07-27T17:06:58.834Z,22.20
2022-07-27T17:09:02.557Z,22.20
2022-07-27T17:11:06.697Z,22.20
2022-07-27T17:13:13.605Z,22.10
2022-07-27T17:15:16.774Z,22.10
2022-07-27T17:17:19.589Z,22.00
2022-07-27T17:19:22.197Z,22.00
2022-07-27T17:21:25.234Z,22.00
2022-07-27T17:23:33.458Z,21.90
2022-07-27T17:25:38.427Z,22.00
2022-07-27T17:27:41.479Z,22.00
2022-07-27T17:30:00.260Z,22.10
2022-07-27T17:32:02.853Z,22.10
2022-07-27T17:34:05.432Z,22.10
2022-07-27T17:36:15.156Z,22.10
2022-07-27T17:38:19.988Z,22.00
2022-07-27T17:40:23.479Z,22.00
2022-07-27T17:42:28.138Z,21.80
2022-07-27T17:44:38.053Z,21.70
2022-07-27T17:46:41.088Z,21.60
2022-07-27T17:48:43.842Z,21.50
2022-07-27T17:50:46.743Z,21.40
2022-07-27T17:52:49.342Z,21.40
2022-07-27T17:54:57.400Z,21.30
2022-07-27T17:56:59.992Z,21.30
2022-07-27T17:59:27.008Z,21.20
2022-07-27T18:01:46.323Z,21.20
2022-07-27T18:04:16.005Z,21.00
2022-07-27T18:06:18.761Z,20.80
2022-07-27T18:08:21.855Z,20.60
2022-07-27T18:10:38.191Z,20.50
2022-07-27T18:12:41.383Z,20.40
2022-07-27T18:15:04.076Z,20.30
2022-07-27T18:17:06.709Z,20.20
2022-07-27T18:19:09.561Z,20.10
2022-07-27T18:21:13.583Z,20.10
2022-07-27T18:23:16.597Z,20.10
2022-07-27T18:25:19.359Z,20.00
2022-07-27T18:27:25.546Z,19.90
2022-07-27T18:29:31.189Z,19.80
2022-07-27T18:31:34.989Z,19.80
2022-07-27T18:33:38.069Z,19.80
2022-07-27T18:35:43.194Z,19.70
2022-07-27T18:37:45.879Z,19.70
2022-07-27T18:39:48.456Z,19.70
2022-07-27T18:41:52.317Z,19.60
2022-07-27T18:43:55.764Z,19.60
2022-07-27T18:46:17.346Z,19.50
2022-07-27T18:48:20.280Z,19.40
2022-07-27T18:50:23.689Z,19.50
2022-07-27T18:52:29.269Z,19.40
2022-07-27T18:54:31.866Z,19.40
2022-07-27T18:56:34.418Z,19.30
2022-07-27T18:58:38.590Z,19.20
2022-07-27T19:00:42.711Z,19.20
2022-07-27T19:02:46.197Z,19.10
2022-07-27T19:04:50.631Z,19.00
2022-07-27T19:06:53.238Z,19.00
2022-07-27T19:08:56.005Z,19.00
2022-07-27T19:10:58.751Z,19.00
2022-07-27T19:13:01.318Z,18.90
2022-07-27T19:15:05.009Z,18.90
2022-07-27T19:17:08.083Z,18.90
2022-07-27T19:19:22.847Z,18.80
2022-07-27T19:21:27.001Z,18.70
2022-07-27T19:23:29.893Z,18.70
2022-07-27T19:25:33.884Z,18.60
2022-07-27T19:27:43.175Z,18.50
2022-07-27T19:29:46.613Z,18.40
2022-07-27T19:31:49.422Z,18.40
2022-07-27T19:33:52.615Z,18.30
2022-07-27T19:35:55.727Z,18.30
2022-07-27T19:37:58.613Z,18.20
2022-07-27T19:40:20.354Z,18.20
2022-07-27T19:42:26.938Z,18.20
2022-07-27T19:44:29.787Z,18.20
2022-07-27T19:46:32.444Z,18.10
2022-07-27T19:48:35.194Z,18.10
2022-07-27T19:50:38.152Z,17.90
2022-07-27T19:52:41.185Z,17.90
2022-07-27T19:54:43.969Z,17.90
2022-07-27T19:57:06.334Z,17.80
2022-07-27T19:59:13.623Z,17.70
2022-07-27T20:01:43.122Z,17.70
2022-07-27T20:03:52.197Z,17.60
2022-07-27T20:05:57.555Z,17.60
2022-07-27T20:08:12.978Z,17.50
2022-07-27T20:10:15.714Z,17.50
2022-07-27T20:12:19.467Z,17.40
2022-07-27T20:14:23.168Z,17.30
2022-07-27T20:16:30.421Z,17.30
2022-07-27T20:19:08.761Z,17.20
2022-07-27T20:21:22.341Z,17.20
2022-07-27T20:23:26.024Z,17.10
2022-07-27T20:25:28.787Z,17.10
2022-07-27T20:27:31.594Z,17.10
2022-07-27T20:29:34.241Z,17.00
2022-07-27T20:31:38.586Z,17.00
2022-07-27T20:33:41.459Z,16.90
2022-07-27T20:35:45.571Z,16.90
2022-07-27T20:37:48.396Z,16.80
2022-07-27T20:39:51.941Z,16.80
2022-07-27T20:41:54.755Z,16.80
2022-07-27T20:43:58.835Z,16.70
2022-07-27T20:46:01.447Z,16.70
2022-07-27T20:48:12.448Z,16.70
2022-07-27T20:50:15.493Z,16.60
2022-07-27T20:52:18.287Z,16.60
2022-07-27T20:54:28.993Z,16.60
2022-07-27T20:56:34.477Z,16.50
2022-07-27T20:58:37.217Z,16.50
2022-07-27T21:00:40.001Z,16.40
2022-07-27T21:02:42.958Z,16.40
2022-07-27T21:04:45.635Z,16.30
2022-07-27T21:06:48.459Z,16.30
2022-07-27T21:08:52.279Z,16.30
2022-07-27T21:10:55.889Z,16.20
2022-07-27T21:12:58.627Z,16.10
2022-07-27T21:15:02.636Z,16.10
2022-07-27T21:17:11.215Z,16.00
2022-07-27T21:19:14.280Z,15.90
2022-07-27T21:21:27.494Z,15.90
2022-07-27T21:23:52.475Z,15.80
2022-07-27T21:26:00.574Z,15.80
2022-07-27T21:28:04.646Z,15.70
2022-07-27T21:30:08.695Z,15.70
2022-07-27T21:32:11.787Z,15.60
2022-07-27T21:34:17.146Z,15.50
2022-07-27T21:36:20.117Z,15.50
2022-07-27T21:38:26.128Z,15.40
2022-07-27T21:40:28.862Z,15.40
2022-07-27T21:42:33.150Z,15.30
2022-07-27T21:44:37.589Z,15.30
2022-07-27T21:46:40.146Z,15.20
2022-07-27T21:48:43.025Z,15.20
2022-07-27T21:50:45.709Z,15.10
2022-07-27T21:52:48.273Z,15.10
2022-07-27T21:54:50.969Z,15.00
2022-07-27T21:56:53.601Z,15.00
2022-07-27T21:58:56.225Z,14.90
2022-07-27T22:00:58.866Z,14.90
2022-07-27T22:03:01.594Z,14.90
2022-07-27T22:05:04.658Z,14.80
2022-07-27T22:07:07.227Z,14.80
2022-07-27T22:09:20.332Z,14.80
2022-07-27T22:11:22.927Z,14.70
2022-07-27T22:13:26.579Z,14.70
2022-07-27T22:15:29.176Z,14.70
2022-07-27T22:17:45.948Z,14.70
2022-07-27T22:19:53.447Z,14.60
2022-07-27T22:21:56.384Z,14.60
2022-07-27T22:23:59.069Z,14.60
2022-07-27T22:26:01.759Z,14.60
2022-07-27T22:28:06.415Z,14.50
2022-07-27T22:30:10.501Z,14.50
2022-07-27T22:32:13.102Z,14.50
2022-07-27T22:34:16.195Z,14.50
2022-07-27T22:36:19.159Z,14.50
2022-07-27T22:38:23.859Z,14.40
2022-07-27T22:40:31.091Z,14.40
2022-07-27T22:42:33.762Z,14.30
2022-07-27T22:44:38.142Z,14.30
2022-07-27T22:46:40.796Z,14.30
2022-07-27T22:48:43.447Z,14.30
2022-07-27T22:50:47.774Z,14.30
2022-07-27T22:52:52.584Z,14.20
2022-07-27T22:54:55.175Z,14.20
2022-07-27T22:56:57.768Z,14.20
2022-07-27T22:59:00.365Z,14.20
2022-07-27T23:01:03.032Z,14.20
2022-07-27T23:03:05.743Z,14.10
2022-07-27T23:05:08.635Z,14.10
2022-07-27T23:07:11.234Z,14.10
2022-07-27T23:09:14.402Z,14.10
2022-07-27T23:11:17.336Z,14.00
2022-07-27T23:13:22.984Z,14.00
2022-07-27T23:15:55.153Z,14.00
2022-07-27T23:17:57.781Z,14.00
2022-07-27T23:20:00.353Z,13.90
2022-07-27T23:22:02.914Z,14.00
2022-07-27T23:24:05.912Z,14.00
2022-07-27T23:26:08.565Z,14.00
2022-07-27T23:28:12.196Z,14.00
2022-07-27T23:30:14.783Z,14.00
2022-07-27T23:32:17.518Z,14.00
2022-07-27T23:34:20.798Z,14.00
2022-07-27T23:36:25.077Z,13.90
2022-07-27T23:38:27.641Z,13.90
2022-07-27T23:40:30.410Z,13.90
2022-07-27T23:42:35.131Z,13.90
2022-07-27T23:44:37.687Z,13.90
2022-07-27T23:46:40.304Z,13.90
2022-07-27T23:48:42.967Z,13.90
2022-07-27T23:50:45.786Z,13.90
2022-07-27T23:52:49.727Z,13.90
2022-07-27T23:54:52.358Z,13.90
2022-07-27T23:56:55.026Z,13.80
2022-07-27T23:58:58.653Z,13.80
